sensor_id;sensor_type;location;lat;lon;timestamp;P1;durP1;ratioP1;P2;durP2;ratioP2
47413;SDS011;33163;0.000;0.000;2023-06-22T00:00:48;4.65;;;2.92;;
47413;SDS011;33163;0.000;0.000;2023-06-22T00:03:15;5.07;;;2.72;;
47413;SDS011;33163;0.000;0.000;2023-06-22T00:05:43;4.03;;;2.83;;
47413;SDS011;33163;0.000;0.000;2023-06-22T00:08:10;5.90;;;2.88;;
47413;SDS011;33163;0.000;0.000;2023-06-22T00:10:38;5.75;;;3.35;;
47413;SDS011;33163;0.000;0.000;2023-06-22T00:13:05;4.28;;;3.08;;
47413;SDS011;33163;0.000;0.000;2023-06-22T00:15:32;5.80;;;3.15;;
47413;SDS011;33163;0.000;0.000;2023-06-22T00:17:59;4.55;;;2.75;;
47413;SDS011;33163;0.000;0.000;2023-06-22T00:20:27;5.03;;;3.25;;
47413;SDS011;33163;0.000;0.000;2023-06-22T00:22:54;3.78;;;3.13;;
47413;SDS011;33163;0.000;0.000;2023-06-22T00:25:21;4.93;;;3.45;;
47413;SDS011;33163;0.000;0.000;2023-06-22T00:27:49;5.70;;;3.30;;
47413;SDS011;33163;0.000;0.000;2023-06-22T00:30:16;5.40;;;2.97;;
47413;SDS011;33163;0.000;0.000;2023-06-22T00:32:44;4.22;;;3.13;;
47413;SDS011;33163;0.000;0.000;2023-06-22T00:35:11;3.53;;;2.38;;
47413;SDS011;33163;0.000;0.000;2023-06-22T00:37:39;4.65;;;3.10;;
47413;SDS011;33163;0.000;0.000;2023-06-22T00:40:07;4.43;;;2.78;;
47413;SDS011;33163;0.000;0.000;2023-06-22T00:42:36;6.13;;;2.95;;
47413;SDS011;33163;0.000;0.000;2023-06-22T00:45:06;3.50;;;2.65;;
47413;SDS011;33163;0.000;0.000;2023-06-22T00:47:33;5.60;;;3.15;;
47413;SDS011;33163;0.000;0.000;2023-06-22T00:50:00;6.50;;;3.58;;
47413;SDS011;33163;0.000;0.000;2023-06-22T00:52:28;5.60;;;2.70;;
47413;SDS011;33163;0.000;0.000;2023-06-22T00:54:58;4.57;;;2.88;;
47413;SDS011;33163;0.000;0.000;2023-06-22T00:57:27;4.00;;;2.72;;
47413;SDS011;33163;0.000;0.000;2023-06-22T00:59:54;4.80;;;3.28;;
47413;SDS011;33163;0.000;0.000;2023-06-22T01:02:22;3.88;;;2.80;;
47413;SDS011;33163;0.000;0.000;2023-06-22T01:04:49;5.28;;;2.75;;
47413;SDS011;33163;0.000;0.000;2023-06-22T01:07:17;4.07;;;3.10;;
47413;SDS011;33163;0.000;0.000;2023-06-22T01:09:51;5.75;;;3.10;;
47413;SDS011;33163;0.000;0.000;2023-06-22T01:12:23;4.85;;;3.17;;
47413;SDS011;33163;0.000;0.000;2023-06-22T01:14:54;4.10;;;2.85;;
47413;SDS011;33163;0.000;0.000;2023-06-22T01:17:25;5.55;;;3.58;;
47413;SDS011;33163;0.000;0.000;2023-06-22T01:19:54;4.50;;;2.92;;
47413;SDS011;33163;0.000;0.000;2023-06-22T01:22:23;6.35;;;3.50;;
47413;SDS011;33163;0.000;0.000;2023-06-22T01:24:55;6.63;;;3.67;;
47413;SDS011;33163;0.000;0.000;2023-06-22T01:27:36;3.80;;;2.78;;
47413;SDS011;33163;0.000;0.000;2023-06-22T01:30:15;4.90;;;3.42;;
47413;SDS011;33163;0.000;0.000;2023-06-22T01:32:43;4.40;;;3.13;;
47413;SDS011;33163;0.000;0.000;2023-06-22T01:35:10;5.45;;;3.65;;
47413;SDS011;33163;0.000;0.000;2023-06-22T01:37:38;6.22;;;3.08;;
47413;SDS011;33163;0.000;0.000;2023-06-22T01:40:06;3.90;;;2.85;;
47413;SDS011;33163;0.000;0.000;2023-06-22T01:42:34;4.75;;;3.08;;
47413;SDS011;33163;0.000;0.000;2023-06-22T01:45:02;5.13;;;3.33;;
47413;SDS011;33163;0.000;0.000;2023-06-22T01:47:32;5.25;;;3.30;;
47413;SDS011;33163;0.000;0.000;2023-06-22T01:49:59;4.03;;;3.50;;
47413;SDS011;33163;0.000;0.000;2023-06-22T01:52:27;4.50;;;3.25;;
47413;SDS011;33163;0.000;0.000;2023-06-22T01:54:54;5.75;;;3.28;;
47413;SDS011;33163;0.000;0.000;2023-06-22T01:57:22;7.93;;;3.70;;
47413;SDS011;33163;0.000;0.000;2023-06-22T01:59:51;5.68;;;4.13;;
47413;SDS011;33163;0.000;0.000;2023-06-22T02:02:23;6.20;;;3.87;;
47413;SDS011;33163;0.000;0.000;2023-06-22T02:04:56;8.05;;;3.85;;
47413;SDS011;33163;0.000;0.000;2023-06-22T02:07:28;5.85;;;3.78;;
47413;SDS011;33163;0.000;0.000;2023-06-22T02:09:58;5.55;;;3.90;;
47413;SDS011;33163;0.000;0.000;2023-06-22T02:12:28;5.07;;;3.58;;
47413;SDS011;33163;0.000;0.000;2023-06-22T02:14:57;3.60;;;2.92;;
47413;SDS011;33163;0.000;0.000;2023-06-22T02:17:25;5.93;;;3.50;;
47413;SDS011;33163;0.000;0.000;2023-06-22T02:19:52;4.60;;;3.75;;
47413;SDS011;33163;0.000;0.000;2023-06-22T02:22:20;5.82;;;3.78;;
47413;SDS011;33163;0.000;0.000;2023-06-22T02:24:48;5.05;;;3.53;;
47413;SDS011;33163;0.000;0.000;2023-06-22T02:27:15;7.68;;;4.20;;
47413;SDS011;33163;0.000;0.000;2023-06-22T02:29:42;5.68;;;4.00;;
47413;SDS011;33163;0.000;0.000;2023-06-22T02:32:09;5.20;;;3.83;;
47413;SDS011;33163;0.000;0.000;2023-06-22T02:34:37;6.43;;;3.92;;
47413;SDS011;33163;0.000;0.000;2023-06-22T02:37:04;5.68;;;4.10;;
47413;SDS011;33163;0.000;0.000;2023-06-22T02:39:32;5.25;;;3.78;;
47413;SDS011;33163;0.000;0.000;2023-06-22T02:41:59;6.85;;;3.90;;
47413;SDS011;33163;0.000;0.000;2023-06-22T02:44:26;4.75;;;3.67;;
47413;SDS011;33163;0.000;0.000;2023-06-22T02:46:53;4.88;;;3.67;;
47413;SDS011;33163;0.000;0.000;2023-06-22T02:49:20;5.57;;;3.33;;
47413;SDS011;33163;0.000;0.000;2023-06-22T02:51:47;5.93;;;3.95;;
47413;SDS011;33163;0.000;0.000;2023-06-22T02:54:15;7.95;;;4.25;;
47413;SDS011;33163;0.000;0.000;2023-06-22T02:56:43;5.65;;;3.72;;
47413;SDS011;33163;0.000;0.000;2023-06-22T02:59:10;6.45;;;4.22;;
47413;SDS011;33163;0.000;0.000;2023-06-22T03:01:37;5.78;;;4.70;;
47413;SDS011;33163;0.000;0.000;2023-06-22T03:04:04;6.38;;;4.28;;
47413;SDS011;33163;0.000;0.000;2023-06-22T03:06:31;5.45;;;4.25;;
47413;SDS011;33163;0.000;0.000;2023-06-22T03:08:59;5.22;;;4.00;;
47413;SDS011;33163;0.000;0.000;2023-06-22T03:11:29;5.18;;;4.28;;
47413;SDS011;33163;0.000;0.000;2023-06-22T03:13:57;5.95;;;4.00;;
47413;SDS011;33163;0.000;0.000;2023-06-22T03:16:23;5.55;;;3.78;;
47413;SDS011;33163;0.000;0.000;2023-06-22T03:18:50;4.90;;;4.10;;
47413;SDS011;33163;0.000;0.000;2023-06-22T03:21:18;6.57;;;4.25;;
47413;SDS011;33163;0.000;0.000;2023-06-22T03:23:45;5.95;;;4.32;;
47413;SDS011;33163;0.000;0.000;2023-06-22T03:26:12;6.75;;;4.13;;
47413;SDS011;33163;0.000;0.000;2023-06-22T03:28:38;6.03;;;3.72;;
47413;SDS011;33163;0.000;0.000;2023-06-22T03:31:06;6.13;;;4.13;;
47413;SDS011;33163;0.000;0.000;2023-06-22T03:33:34;5.80;;;4.15;;
47413;SDS011;33163;0.000;0.000;2023-06-22T03:36:01;6.43;;;3.85;;
47413;SDS011;33163;0.000;0.000;2023-06-22T03:38:27;5.82;;;4.25;;
47413;SDS011;33163;0.000;0.000;2023-06-22T03:40:54;8.35;;;4.85;;
47413;SDS011;33163;0.000;0.000;2023-06-22T03:43:21;7.07;;;4.50;;
47413;SDS011;33163;0.000;0.000;2023-06-22T03:45:49;7.65;;;5.13;;
47413;SDS011;33163;0.000;0.000;2023-06-22T03:48:17;7.45;;;5.40;;
47413;SDS011;33163;0.000;0.000;2023-06-22T03:50:43;7.97;;;4.50;;
47413;SDS011;33163;0.000;0.000;2023-06-22T03:53:10;7.03;;;5.10;;
47413;SDS011;33163;0.000;0.000;2023-06-22T03:55:40;6.10;;;4.50;;
47413;SDS011;33163;0.000;0.000;2023-06-22T03:58:13;6.07;;;3.80;;
47413;SDS011;33163;0.000;0.000;2023-06-22T04:00:40;7.32;;;4.25;;
47413;SDS011;33163;0.000;0.000;2023-06-22T04:03:07;6.80;;;4.68;;
47413;SDS011;33163;0.000;0.000;2023-06-22T04:05:35;6.68;;;4.90;;
47413;SDS011;33163;0.000;0.000;2023-06-22T04:08:02;6.65;;;4.22;;
47413;SDS011;33163;0.000;0.000;2023-06-22T04:10:28;7.68;;;4.93;;
47413;SDS011;33163;0.000;0.000;2023-06-22T04:12:55;8.13;;;5.10;;
47413;SDS011;33163;0.000;0.000;2023-06-22T04:15:22;6.18;;;4.45;;
47413;SDS011;33163;0.000;0.000;2023-06-22T04:17:49;6.03;;;4.32;;
47413;SDS011;33163;0.000;0.000;2023-06-22T04:20:15;8.13;;;4.47;;
47413;SDS011;33163;0.000;0.000;2023-06-22T04:22:43;7.35;;;4.28;;
47413;SDS011;33163;0.000;0.000;2023-06-22T04:25:11;6.32;;;4.65;;
47413;SDS011;33163;0.000;0.000;2023-06-22T04:27:37;7.78;;;4.78;;
47413;SDS011;33163;0.000;0.000;2023-06-22T04:30:05;6.90;;;4.90;;
47413;SDS011;33163;0.000;0.000;2023-06-22T04:32:33;8.85;;;4.90;;
47413;SDS011;33163;0.000;0.000;2023-06-22T04:35:01;5.80;;;4.63;;
47413;SDS011;33163;0.000;0.000;2023-06-22T04:37:29;8.38;;;4.88;;
47413;SDS011;33163;0.000;0.000;2023-06-22T04:39:57;8.68;;;5.72;;
47413;SDS011;33163;0.000;0.000;2023-06-22T04:42:25;6.82;;;4.63;;
47413;SDS011;33163;0.000;0.000;2023-06-22T04:44:52;7.78;;;5.45;;
47413;SDS011;33163;0.000;0.000;2023-06-22T04:47:19;7.13;;;4.72;;
47413;SDS011;33163;0.000;0.000;2023-06-22T04:49:46;6.97;;;4.97;;
47413;SDS011;33163;0.000;0.000;2023-06-22T04:52:13;7.57;;;4.28;;
47413;SDS011;33163;0.000;0.000;2023-06-22T04:54:45;7.70;;;4.57;;
47413;SDS011;33163;0.000;0.000;2023-06-22T04:57:15;6.22;;;4.25;;
47413;SDS011;33163;0.000;0.000;2023-06-22T04:59:41;7.75;;;4.30;;
47413;SDS011;33163;0.000;0.000;2023-06-22T05:02:09;6.65;;;4.22;;
47413;SDS011;33163;0.000;0.000;2023-06-22T05:04:36;5.47;;;4.32;;
47413;SDS011;33163;0.000;0.000;2023-06-22T05:07:03;7.47;;;4.38;;
47413;SDS011;33163;0.000;0.000;2023-06-22T05:09:31;5.05;;;4.07;;
47413;SDS011;33163;0.000;0.000;2023-06-22T05:11:58;8.20;;;4.25;;
47413;SDS011;33163;0.000;0.000;2023-06-22T05:14:28;5.47;;;3.88;;
47413;SDS011;33163;0.000;0.000;2023-06-22T05:16:55;23.80;;;12.25;;
47413;SDS011;33163;0.000;0.000;2023-06-22T05:19:23;26.15;;;16.52;;
47413;SDS011;33163;0.000;0.000;2023-06-22T05:21:50;30.85;;;20.05;;
47413;SDS011;33163;0.000;0.000;2023-06-22T05:24:17;30.50;;;19.55;;
47413;SDS011;33163;0.000;0.000;2023-06-22T05:26:44;36.15;;;21.02;;
47413;SDS011;33163;0.000;0.000;2023-06-22T05:29:10;40.78;;;21.52;;
47413;SDS011;33163;0.000;0.000;2023-06-22T05:31:39;32.13;;;21.00;;
47413;SDS011;33163;0.000;0.000;2023-06-22T05:34:06;32.58;;;20.45;;
47413;SDS011;33163;0.000;0.000;2023-06-22T05:36:33;35.03;;;21.25;;
47413;SDS011;33163;0.000;0.000;2023-06-22T05:39:10;33.63;;;19.73;;
47413;SDS011;33163;0.000;0.000;2023-06-22T05:41:38;37.97;;;20.25;;
47413;SDS011;33163;0.000;0.000;2023-06-22T05:44:05;31.75;;;21.00;;
47413;SDS011;33163;0.000;0.000;2023-06-22T05:46:32;36.17;;;21.25;;
47413;SDS011;33163;0.000;0.000;2023-06-22T05:49:00;29.13;;;18.55;;
47413;SDS011;33163;0.000;0.000;2023-06-22T05:51:26;32.90;;;19.05;;
47413;SDS011;33163;0.000;0.000;2023-06-22T05:53:53;32.08;;;21.38;;
47413;SDS011;33163;0.000;0.000;2023-06-22T05:56:20;37.00;;;19.42;;
47413;SDS011;33163;0.000;0.000;2023-06-22T05:58:47;26.85;;;15.70;;
47413;SDS011;33163;0.000;0.000;2023-06-22T06:01:13;24.90;;;15.50;;
47413;SDS011;33163;0.000;0.000;2023-06-22T06:03:40;20.98;;;12.18;;
47413;SDS011;33163;0.000;0.000;2023-06-22T06:06:09;19.77;;;11.20;;
47413;SDS011;33163;0.000;0.000;2023-06-22T06:08:36;18.13;;;10.93;;
47413;SDS011;33163;0.000;0.000;2023-06-22T06:11:02;20.60;;;10.88;;
47413;SDS011;33163;0.000;0.000;2023-06-22T06:13:29;17.95;;;10.13;;
47413;SDS011;33163;0.000;0.000;2023-06-22T06:15:56;18.98;;;9.63;;
47413;SDS011;33163;0.000;0.000;2023-06-22T06:18:24;16.75;;;9.32;;
47413;SDS011;33163;0.000;0.000;2023-06-22T06:20:51;11.13;;;8.32;;
47413;SDS011;33163;0.000;0.000;2023-06-22T06:23:19;13.82;;;6.25;;
47413;SDS011;33163;0.000;0.000;2023-06-22T06:25:46;10.48;;;6.35;;
47413;SDS011;33163;0.000;0.000;2023-06-22T06:28:12;9.43;;;6.22;;
47413;SDS011;33163;0.000;0.000;2023-06-22T06:30:39;10.88;;;5.70;;
47413;SDS011;33163;0.000;0.000;2023-06-22T06:33:06;10.30;;;5.07;;
47413;SDS011;33163;0.000;0.000;2023-06-22T06:35:33;8.75;;;4.70;;
47413;SDS011;33163;0.000;0.000;2023-06-22T06:38:01;7.72;;;4.60;;
47413;SDS011;33163;0.000;0.000;2023-06-22T06:40:29;6.65;;;4.20;;
47413;SDS011;33163;0.000;0.000;2023-06-22T06:42:56;6.00;;;4.05;;
47413;SDS011;33163;0.000;0.000;2023-06-22T06:45:23;8.80;;;5.07;;
47413;SDS011;33163;0.000;0.000;2023-06-22T06:47:52;6.82;;;3.60;;
47413;SDS011;33163;0.000;0.000;2023-06-22T06:50:19;6.47;;;3.35;;
47413;SDS011;33163;0.000;0.000;2023-06-22T06:52:45;4.13;;;2.92;;
47413;SDS011;33163;0.000;0.000;2023-06-22T06:55:12;4.78;;;3.08;;
47413;SDS011;33163;0.000;0.000;2023-06-22T06:57:41;6.60;;;3.92;;
47413;SDS011;33163;0.000;0.000;2023-06-22T07:00:09;7.00;;;4.40;;
47413;SDS011;33163;0.000;0.000;2023-06-22T07:02:38;6.38;;;3.30;;
47413;SDS011;33163;0.000;0.000;2023-06-22T07:05:06;7.95;;;3.60;;
47413;SDS011;33163;0.000;0.000;2023-06-22T07:07:33;4.65;;;3.97;;
47413;SDS011;33163;0.000;0.000;2023-06-22T07:10:00;5.47;;;3.58;;
47413;SDS011;33163;0.000;0.000;2023-06-22T07:12:27;6.38;;;3.60;;
47413;SDS011;33163;0.000;0.000;2023-06-22T07:14:57;6.50;;;3.97;;
47413;SDS011;33163;0.000;0.000;2023-06-22T07:17:27;4.50;;;3.05;;
47413;SDS011;33163;0.000;0.000;2023-06-22T07:19:54;6.25;;;3.95;;
47413;SDS011;33163;0.000;0.000;2023-06-22T07:22:21;5.55;;;3.28;;
47413;SDS011;33163;0.000;0.000;2023-06-22T07:24:47;6.55;;;3.45;;
47413;SDS011;33163;0.000;0.000;2023-06-22T07:27:15;5.10;;;3.30;;
47413;SDS011;33163;0.000;0.000;2023-06-22T07:29:44;4.57;;;3.03;;
47413;SDS011;33163;0.000;0.000;2023-06-22T07:32:12;4.80;;;2.72;;
47413;SDS011;33163;0.000;0.000;2023-06-22T07:34:39;3.63;;;3.10;;
47413;SDS011;33163;0.000;0.000;2023-06-22T07:37:06;5.43;;;2.88;;
47413;SDS011;33163;0.000;0.000;2023-06-22T07:39:33;5.85;;;3.10;;
47413;SDS011;33163;0.000;0.000;2023-06-22T07:41:59;5.03;;;2.70;;
47413;SDS011;33163;0.000;0.000;2023-06-22T07:44:26;4.28;;;3.00;;
47413;SDS011;33163;0.000;0.000;2023-06-22T07:46:53;4.50;;;2.42;;
47413;SDS011;33163;0.000;0.000;2023-06-22T07:49:21;5.75;;;3.35;;
47413;SDS011;33163;0.000;0.000;2023-06-22T07:51:48;6.00;;;3.05;;
47413;SDS011;33163;0.000;0.000;2023-06-22T07:54:14;3.17;;;2.50;;
47413;SDS011;33163;0.000;0.000;2023-06-22T07:56:42;5.72;;;2.88;;
47413;SDS011;33163;0.000;0.000;2023-06-22T07:59:09;3.40;;;2.30;;
47413;SDS011;33163;0.000;0.000;2023-06-22T08:01:35;3.60;;;2.50;;
47413;SDS011;33163;0.000;0.000;2023-06-22T08:04:02;5.32;;;3.13;;
47413;SDS011;33163;0.000;0.000;2023-06-22T08:06:32;4.03;;;2.63;;
47413;SDS011;33163;0.000;0.000;2023-06-22T08:08:59;3.22;;;2.42;;
47413;SDS011;33163;0.000;0.000;2023-06-22T08:11:25;3.95;;;2.50;;
47413;SDS011;33163;0.000;0.000;2023-06-22T08:13:53;2.97;;;2.15;;
47413;SDS011;33163;0.000;0.000;2023-06-22T08:16:20;3.65;;;2.40;;
47413;SDS011;33163;0.000;0.000;2023-06-22T08:18:47;3.58;;;2.33;;
47413;SDS011;33163;0.000;0.000;2023-06-22T08:21:14;2.30;;;2.00;;
47413;SDS011;33163;0.000;0.000;2023-06-22T08:23:42;3.65;;;1.98;;
47413;SDS011;33163;0.000;0.000;2023-06-22T08:26:09;3.75;;;2.53;;
47413;SDS011;33163;0.000;0.000;2023-06-22T08:28:35;2.80;;;1.95;;
47413;SDS011;33163;0.000;0.000;2023-06-22T08:31:02;3.60;;;2.70;;
47413;SDS011;33163;0.000;0.000;2023-06-22T08:33:29;5.47;;;2.65;;
47413;SDS011;33163;0.000;0.000;2023-06-22T08:35:56;3.83;;;2.22;;
47413;SDS011;33163;0.000;0.000;2023-06-22T08:38:24;5.35;;;2.30;;
47413;SDS011;33163;0.000;0.000;2023-06-22T08:40:52;3.95;;;2.45;;
47413;SDS011;33163;0.000;0.000;2023-06-22T08:43:18;3.88;;;2.50;;
47413;SDS011;33163;0.000;0.000;2023-06-22T08:45:45;5.18;;;2.40;;
47413;SDS011;33163;0.000;0.000;2023-06-22T08:48:12;4.32;;;2.28;;
47413;SDS011;33163;0.000;0.000;2023-06-22T08:50:39;3.58;;;2.22;;
47413;SDS011;33163;0.000;0.000;2023-06-22T08:53:06;2.78;;;2.40;;
47413;SDS011;33163;0.000;0.000;2023-06-22T08:55:33;4.28;;;2.20;;
47413;SDS011;33163;0.000;0.000;2023-06-22T08:58:01;2.97;;;2.20;;
47413;SDS011;33163;0.000;0.000;2023-06-22T09:00:29;3.30;;;1.98;;
47413;SDS011;33163;0.000;0.000;2023-06-22T09:02:59;2.72;;;2.30;;
47413;SDS011;33163;0.000;0.000;2023-06-22T09:05:26;4.60;;;2.20;;
47413;SDS011;33163;0.000;0.000;2023-06-22T09:07:53;2.00;;;1.75;;
47413;SDS011;33163;0.000;0.000;2023-06-22T09:10:20;2.38;;;1.90;;
47413;SDS011;33163;0.000;0.000;2023-06-22T09:12:47;1.85;;;1.52;;
47413;SDS011;33163;0.000;0.000;2023-06-22T09:15:15;2.53;;;1.83;;
47413;SDS011;33163;0.000;0.000;2023-06-22T09:17:42;4.22;;;2.05;;
47413;SDS011;33163;0.000;0.000;2023-06-22T09:20:11;3.22;;;2.25;;
47413;SDS011;33163;0.000;0.000;2023-06-22T09:22:38;2.67;;;2.22;;
47413;SDS011;33163;0.000;0.000;2023-06-22T09:25:05;2.50;;;2.22;;
47413;SDS011;33163;0.000;0.000;2023-06-22T09:27:32;3.10;;;2.15;;
47413;SDS011;33163;0.000;0.000;2023-06-22T09:29:59;2.30;;;2.10;;
47413;SDS011;33163;0.000;0.000;2023-06-22T09:32:27;2.75;;;1.90;;
47413;SDS011;33163;0.000;0.000;2023-06-22T09:34:54;4.13;;;2.00;;
47413;SDS011;33163;0.000;0.000;2023-06-22T09:37:21;2.67;;;2.15;;
47413;SDS011;33163;0.000;0.000;2023-06-22T09:39:48;2.28;;;1.83;;
47413;SDS011;33163;0.000;0.000;2023-06-22T09:42:14;2.10;;;1.90;;
47413;SDS011;33163;0.000;0.000;2023-06-22T09:44:41;2.28;;;2.00;;
47413;SDS011;33163;0.000;0.000;2023-06-22T09:47:08;2.47;;;2.03;;
47413;SDS011;33163;0.000;0.000;2023-06-22T09:49:36;3.60;;;1.98;;
47413;SDS011;33163;0.000;0.000;2023-06-22T09:52:03;1.77;;;1.67;;
47413;SDS011;33163;0.000;0.000;2023-06-22T09:54:30;2.97;;;1.60;;
47413;SDS011;33163;0.000;0.000;2023-06-22T09:56:57;2.10;;;1.90;;
47413;SDS011;33163;0.000;0.000;2023-06-22T09:59:23;2.22;;;1.90;;
47413;SDS011;33163;0.000;0.000;2023-06-22T10:01:50;2.95;;;2.03;;
47413;SDS011;33163;0.000;0.000;2023-06-22T10:04:17;2.42;;;2.08;;
47413;SDS011;33163;0.000;0.000;2023-06-22T10:06:45;2.60;;;2.10;;
47413;SDS011;33163;0.000;0.000;2023-06-22T10:09:12;2.40;;;1.73;;
47413;SDS011;33163;0.000;0.000;2023-06-22T10:11:39;2.28;;;1.70;;
47413;SDS011;33163;0.000;0.000;2023-06-22T10:14:06;3.00;;;2.17;;
47413;SDS011;33163;0.000;0.000;2023-06-22T10:16:32;2.08;;;1.42;;
47413;SDS011;33163;0.000;0.000;2023-06-22T10:19:00;4.07;;;2.20;;
47413;SDS011;33163;0.000;0.000;2023-06-22T10:21:27;3.47;;;2.25;;
47413;SDS011;33163;0.000;0.000;2023-06-22T10:23:55;2.72;;;2.00;;
47413;SDS011;33163;0.000;0.000;2023-06-22T10:26:22;1.90;;;1.80;;
47413;SDS011;33163;0.000;0.000;2023-06-22T10:28:49;3.05;;;2.17;;
47413;SDS011;33163;0.000;0.000;2023-06-22T10:31:16;2.83;;;2.25;;
47413;SDS011;33163;0.000;0.000;2023-06-22T10:33:43;1.55;;;1.38;;
47413;SDS011;33163;0.000;0.000;2023-06-22T10:36:10;2.13;;;1.88;;
47413;SDS011;33163;0.000;0.000;2023-06-22T10:38:37;2.92;;;1.88;;
47413;SDS011;33163;0.000;0.000;2023-06-22T10:41:05;3.10;;;2.00;;
47413;SDS011;33163;0.000;0.000;2023-06-22T10:43:32;2.25;;;1.90;;
47413;SDS011;33163;0.000;0.000;2023-06-22T10:45:59;1.90;;;1.77;;
47413;SDS011;33163;0.000;0.000;2023-06-22T10:48:26;2.50;;;1.90;;
47413;SDS011;33163;0.000;0.000;2023-06-22T10:50:53;3.45;;;2.10;;
47413;SDS011;33163;0.000;0.000;2023-06-22T10:53:20;2.30;;;2.00;;
47413;SDS011;33163;0.000;0.000;2023-06-22T10:55:47;1.90;;;1.70;;
47413;SDS011;33163;0.000;0.000;2023-06-22T10:58:15;2.47;;;1.77;;
47413;SDS011;33163;0.000;0.000;2023-06-22T11:00:42;1.63;;;1.50;;
47413;SDS011;33163;0.000;0.000;2023-06-22T11:03:08;2.55;;;1.90;;
47413;SDS011;33163;0.000;0.000;2023-06-22T11:05:35;1.80;;;1.70;;
47413;SDS011;33163;0.000;0.000;2023-06-22T11:08:02;2.22;;;1.98;;
47413;SDS011;33163;0.000;0.000;2023-06-22T11:10:29;2.47;;;1.70;;
47413;SDS011;33163;0.000;0.000;2023-06-22T11:12:56;2.95;;;1.58;;
47413;SDS011;33163;0.000;0.000;2023-06-22T11:15:24;2.03;;;1.73;;
47413;SDS011;33163;0.000;0.000;2023-06-22T11:17:51;2.15;;;1.90;;
47413;SDS011;33163;0.000;0.000;2023-06-22T11:20:17;2.85;;;1.58;;
47413;SDS011;33163;0.000;0.000;2023-06-22T11:22:45;2.47;;;1.90;;
47413;SDS011;33163;0.000;0.000;2023-06-22T11:25:12;2.60;;;1.77;;
47413;SDS011;33163;0.000;0.000;2023-06-22T11:27:39;2.83;;;1.85;;
47413;SDS011;33163;0.000;0.000;2023-06-22T11:30:06;2.03;;;1.88;;
47413;SDS011;33163;0.000;0.000;2023-06-22T11:32:35;2.25;;;2.05;;
47413;SDS011;33163;0.000;0.000;2023-06-22T11:35:02;2.55;;;1.75;;
47413;SDS011;33163;0.000;0.000;2023-06-22T11:37:29;2.35;;;2.05;;
47413;SDS011;33163;0.000;0.000;2023-06-22T11:39:56;2.20;;;1.92;;
47413;SDS011;33163;0.000;0.000;2023-06-22T11:42:23;2.55;;;1.88;;
47413;SDS011;33163;0.000;0.000;2023-06-22T11:44:50;2.38;;;1.90;;
47413;SDS011;33163;0.000;0.000;2023-06-22T11:47:17;2.58;;;2.10;;
47413;SDS011;33163;0.000;0.000;2023-06-22T11:49:45;2.08;;;1.67;;
47413;SDS011;33163;0.000;0.000;2023-06-22T11:52:12;2.33;;;1.70;;
47413;SDS011;33163;0.000;0.000;2023-06-22T11:54:38;2.25;;;2.05;;
47413;SDS011;33163;0.000;0.000;2023-06-22T11:57:05;2.20;;;1.88;;
47413;SDS011;33163;0.000;0.000;2023-06-22T11:59:32;3.67;;;1.83;;
47413;SDS011;33163;0.000;0.000;2023-06-22T12:01:59;2.13;;;1.85;;
47413;SDS011;33163;0.000;0.000;2023-06-22T12:04:26;2.22;;;2.03;;
47413;SDS011;33163;0.000;0.000;2023-06-22T12:06:54;2.08;;;1.73;;
47413;SDS011;33163;0.000;0.000;2023-06-22T12:09:20;1.85;;;1.73;;
47413;SDS011;33163;0.000;0.000;2023-06-22T12:11:47;2.20;;;1.85;;
47413;SDS011;33163;0.000;0.000;2023-06-22T12:14:14;3.28;;;2.15;;
47413;SDS011;33163;0.000;0.000;2023-06-22T12:16:41;2.47;;;2.28;;
47413;SDS011;33163;0.000;0.000;2023-06-22T12:19:08;2.38;;;2.00;;
47413;SDS011;33163;0.000;0.000;2023-06-22T12:21:36;2.45;;;1.75;;
47413;SDS011;33163;0.000;0.000;2023-06-22T12:24:05;2.33;;;2.05;;
47413;SDS011;33163;0.000;0.000;2023-06-22T12:26:32;2.17;;;1.73;;
47413;SDS011;33163;0.000;0.000;2023-06-22T12:28:59;2.88;;;1.90;;
47413;SDS011;33163;0.000;0.000;2023-06-22T12:31:26;3.10;;;2.17;;
47413;SDS011;33163;0.000;0.000;2023-06-22T12:33:52;2.65;;;1.90;;
47413;SDS011;33163;0.000;0.000;2023-06-22T12:36:19;2.40;;;1.80;;
47413;SDS011;33163;0.000;0.000;2023-06-22T12:38:46;2.20;;;1.90;;
47413;SDS011;33163;0.000;0.000;2023-06-22T12:41:14;3.63;;;2.25;;
47413;SDS011;33163;0.000;0.000;2023-06-22T12:43:40;5.60;;;2.38;;
47413;SDS011;33163;0.000;0.000;2023-06-22T12:46:07;2.67;;;1.95;;
47413;SDS011;33163;0.000;0.000;2023-06-22T12:48:34;2.60;;;1.80;;
47413;SDS011;33163;0.000;0.000;2023-06-22T12:51:06;2.47;;;2.15;;
47413;SDS011;33163;0.000;0.000;2023-06-22T12:53:33;2.60;;;2.20;;
47413;SDS011;33163;0.000;0.000;2023-06-22T12:56:00;2.90;;;2.10;;
47413;SDS011;33163;0.000;0.000;2023-06-22T12:58:28;2.17;;;1.98;;
47413;SDS011;33163;0.000;0.000;2023-06-22T13:00:54;2.13;;;1.80;;
47413;SDS011;33163;0.000;0.000;2023-06-22T13:03:21;1.67;;;1.58;;
47413;SDS011;33163;0.000;0.000;2023-06-22T13:05:50;2.28;;;1.83;;
47413;SDS011;33163;0.000;0.000;2023-06-22T13:08:16;2.05;;;1.88;;
47413;SDS011;33163;0.000;0.000;2023-06-22T13:10:43;5.15;;;2.45;;
47413;SDS011;33163;0.000;0.000;2023-06-22T13:13:10;2.22;;;2.03;;
47413;SDS011;33163;0.000;0.000;2023-06-22T13:15:38;1.98;;;1.77;;
47413;SDS011;33163;0.000;0.000;2023-06-22T13:18:05;3.55;;;1.60;;
47413;SDS011;33163;0.000;0.000;2023-06-22T13:20:31;3.20;;;2.33;;
47413;SDS011;33163;0.000;0.000;2023-06-22T13:22:58;1.77;;;1.67;;
47413;SDS011;33163;0.000;0.000;2023-06-22T13:25:25;2.97;;;1.92;;
47413;SDS011;33163;0.000;0.000;2023-06-22T13:27:52;2.72;;;1.75;;
47413;SDS011;33163;0.000;0.000;2023-06-22T13:30:18;2.42;;;2.22;;
47413;SDS011;33163;0.000;0.000;2023-06-22T13:32:46;3.38;;;2.10;;
47413;SDS011;33163;0.000;0.000;2023-06-22T13:35:13;2.28;;;1.98;;
47413;SDS011;33163;0.000;0.000;2023-06-22T13:37:40;2.55;;;1.85;;
47413;SDS011;33163;0.000;0.000;2023-06-22T13:40:07;3.00;;;1.80;;
47413;SDS011;33163;0.000;0.000;2023-06-22T13:42:34;2.40;;;1.90;;
47413;SDS011;33163;0.000;0.000;2023-06-22T13:45:01;2.38;;;2.00;;
47413;SDS011;33163;0.000;0.000;2023-06-22T13:47:29;3.13;;;2.00;;
47413;SDS011;33163;0.000;0.000;2023-06-22T13:49:57;2.08;;;1.88;;
47413;SDS011;33163;0.000;0.000;2023-06-22T13:52:24;2.25;;;2.00;;
47413;SDS011;33163;0.000;0.000;2023-06-22T13:54:51;2.63;;;2.42;;
47413;SDS011;33163;0.000;0.000;2023-06-22T13:57:18;2.20;;;1.95;;
47413;SDS011;33163;0.000;0.000;2023-06-22T13:59:45;2.08;;;1.85;;
47413;SDS011;33163;0.000;0.000;2023-06-22T14:02:12;2.53;;;2.10;;
47413;SDS011;33163;0.000;0.000;2023-06-22T14:04:38;2.60;;;1.92;;
47413;SDS011;33163;0.000;0.000;2023-06-22T14:07:07;2.67;;;2.15;;
47413;SDS011;33163;0.000;0.000;2023-06-22T14:09:33;2.28;;;1.90;;
47413;SDS011;33163;0.000;0.000;2023-06-22T14:12:02;2.50;;;2.15;;
47413;SDS011;33163;0.000;0.000;2023-06-22T14:14:30;2.55;;;1.90;;
47413;SDS011;33163;0.000;0.000;2023-06-22T14:16:57;4.57;;;2.13;;
47413;SDS011;33163;0.000;0.000;2023-06-22T14:19:24;4.93;;;2.35;;
47413;SDS011;33163;0.000;0.000;2023-06-22T14:21:51;1.70;;;1.60;;
47413;SDS011;33163;0.000;0.000;2023-06-22T14:24:19;3.15;;;2.10;;
47413;SDS011;33163;0.000;0.000;2023-06-22T14:26:46;2.75;;;2.30;;
47413;SDS011;33163;0.000;0.000;2023-06-22T14:29:12;3.65;;;2.10;;
47413;SDS011;33163;0.000;0.000;2023-06-22T14:31:39;2.80;;;1.88;;
47413;SDS011;33163;0.000;0.000;2023-06-22T14:34:06;2.30;;;2.08;;
47413;SDS011;33163;0.000;0.000;2023-06-22T14:36:33;2.25;;;2.05;;
47413;SDS011;33163;0.000;0.000;2023-06-22T14:39:00;3.15;;;2.10;;
47413;SDS011;33163;0.000;0.000;2023-06-22T14:41:28;4.57;;;2.25;;
47413;SDS011;33163;0.000;0.000;2023-06-22T14:43:56;2.33;;;2.13;;
47413;SDS011;33163;0.000;0.000;2023-06-22T14:46:23;3.13;;;2.03;;
47413;SDS011;33163;0.000;0.000;2023-06-22T14:48:50;3.20;;;1.95;;
47413;SDS011;33163;0.000;0.000;2023-06-22T14:51:16;2.63;;;2.17;;
47413;SDS011;33163;0.000;0.000;2023-06-22T14:53:43;2.33;;;2.08;;
47413;SDS011;33163;0.000;0.000;2023-06-22T14:56:11;2.70;;;2.10;;
47413;SDS011;33163;0.000;0.000;2023-06-22T14:58:41;2.58;;;2.08;;
47413;SDS011;33163;0.000;0.000;2023-06-22T15:01:10;10.05;;;4.90;;